Time;durP1;ratioP1;P1;durP2;ratioP2;P2;SDS_P1;SDS_P2;PMS_P1;PMS_P2;Temp;Humidity;BMP_temperature;BMP_pressure;BME280_temperature;BME280_humidity;BME280_pressure;Samples;Min_cycle;Max_cycle;Signal;HPM_P1;HPM_P2
2022/01/15 00:01:50;;;;;;;27.83;10.57;;;5.20;63.30;;;;;;6321021;28;20023;-81
2022/01/15 00:04:52;;;;;;;26.60;8.98;;;5.10;63.40;;;;;;6318518;28;20077;-82
2022/01/15 00:07:53;;;;;;;43.28;12.63;;;5.10;63.50;;;;;;6318474;28;20047;-81
2022/01/15 00:10:54;;;;;;;36.03;12.32;;;5.10;63.50;;;;;;6303164;28;20488;-81
2022/01/15 00:14:07;;;;;;;34.20;11.88;;;5.00;63.50;;;;;;6284990;28;20028;-81
2022/01/15 00:17:20;;;;;;;24.35;11.50;;;5.00;63.70;;;;;;6314918;28;20485;-81
2022/01/15 00:20:23;;;;;;;26.95;11.90;;;4.90;63.70;;;;;;6287035;28;20521;-82
2022/01/15 00:23:24;;;;;;;25.52;11.15;;;4.90;63.90;;;;;;6281889;28;20105;-82
2022/01/15 00:26:25;;;;;;;26.83;11.23;;;4.90;64.00;;;;;;6301205;28;20572;-81
2022/01/15 00:29:29;;;;;;;22.33;10.48;;;4.90;64.00;;;;;;6311835;28;20031;-82
2022/01/15 00:32:30;;;;;;;29.88;10.82;;;4.90;63.90;;;;;;6299674;28;20031;-82
2022/01/15 00:35:33;;;;;;;27.17;11.27;;;4.90;63.70;;;;;;6284202;28;20048;-81
2022/01/15 00:38:37;;;;;;;35.97;11.38;;;4.90;63.70;;;;;;6316677;28;20028;-81
2022/01/15 00:41:38;;;;;;;31.73;11.75;;;4.90;63.70;;;;;;6294020;28;20099;-82
2022/01/15 00:44:42;;;;;;;30.00;12.13;;;4.90;63.70;;;;;;6317191;28;20496;-83
2022/01/15 00:47:44;;;;;;;21.65;10.55;;;4.80;63.80;;;;;;6320100;28;20035;-82
2022/01/15 00:50:45;;;;;;;32.03;11.10;;;4.80;64.00;;;;;;6301984;28;20478;-82
2022/01/15 00:53:46;;;;;;;37.03;13.43;;;4.80;64.10;;;;;;6316900;28;20059;-82
2022/01/15 00:56:47;;;;;;;23.95;10.25;;;4.80;64.10;;;;;;6300607;28;20024;-81
2022/01/15 00:59:49;;;;;;;24.65;11.25;;;4.80;64.10;;;;;;6314329;28;20515;-82
2022/01/15 01:02:51;;;;;;;32.03;11.93;;;4.80;64.20;;;;;;6283084;28;20035;-82
2022/01/15 01:05:52;;;;;;;24.83;11.73;;;4.80;64.20;;;;;;6314319;28;20374;-81
2022/01/15 01:08:53;;;;;;;28.25;11.98;;;4.90;64.30;;;;;;6300681;28;20680;-82
2022/01/15 01:11:58;;;;;;;20.95;9.90;;;4.80;64.20;;;;;;6298793;28;20024;-81
2022/01/15 01:25:00;;;;;;;23.00;10.25;;;4.80;64.30;;;;;;6315607;28;20038;-81
2022/01/15 01:28:08;;;;;;;37.55;10.68;;;4.80;64.30;;;;;;6318451;28;20032;-82
2022/01/15 01:31:19;;;;;;;24.83;10.40;;;4.80;64.30;;;;;;6299847;28;20354;-82
2022/01/15 01:34:21;;;;;;;28.90;10.38;;;4.80;64.30;;;;;;6309637;28;20059;-82
2022/01/15 01:37:30;;;;;;;24.08;10.00;;;4.80;64.20;;;;;;6292368;28;20059;-82
2022/01/15 01:40:38;;;;;;;32.80;10.68;;;4.80;64.20;;;;;;6294415;28;20161;-82
2022/01/15 01:43:44;;;;;;;24.17;10.25;;;4.80;64.20;;;;;;6296510;28;20032;-82
2022/01/15 01:46:52;;;;;;;26.45;10.57;;;4.80;64.20;;;;;;6298853;28;20044;-82
2022/01/15 01:49:53;;;;;;;24.40;9.85;;;4.80;64.20;;;;;;6281934;28;20048;-81
2022/01/15 01:52:57;;;;;;;33.60;10.75;;;4.80;64.10;;;;;;6315674;28;20073;-82
2022/01/15 01:55:58;;;;;;;41.75;11.38;;;4.60;64.00;;;;;;6318158;28;20921;-82
2022/01/15 01:59:00;;;;;;;26.27;10.27;;;4.80;64.10;;;;;;6315487;28;20064;-82
2022/01/15 02:02:03;;;;;;;19.98;9.73;;;4.70;64.00;;;;;;6316489;28;20092;-82
2022/01/15 02:05:05;;;;;;;26.08;11.18;;;4.80;64.20;;;;;;6284742;28;20061;-82
2022/01/15 02:08:06;;;;;;;32.45;12.45;;;4.80;64.20;;;;;;6310007;28;20032;-82
2022/01/15 02:11:07;;;;;;;29.42;8.88;;;4.70;64.30;;;;;;6315480;28;20062;-81
2022/01/15 02:14:08;;;;;;;18.35;10.02;;;4.80;64.40;;;;;;6296638;28;20024;-83
2022/01/15 02:17:12;;;;;;;22.77;9.48;;;4.80;64.40;;;;;;6314346;28;20400;-82
2022/01/15 02:20:49;;;;;;;31.90;10.65;;;4.80;64.30;;;;;;6285684;28;20039;-82
2022/01/15 02:23:52;;;;;;;22.63;9.27;;;4.70;64.20;;;;;;6335623;28;20062;-82
2022/01/15 02:26:55;;;;;;;24.23;9.63;;;4.70;64.20;;;;;;6340270;28;20456;-83
2022/01/15 02:29:56;;;;;;;23.38;10.02;;;4.70;64.20;;;;;;6313685;28;20069;-83
2022/01/15 02:32:58;;;;;;;26.85;10.10;;;4.60;64.30;;;;;;6323564;28;20164;-82
2022/01/15 02:36:06;;;;;;;22.00;10.48;;;4.60;64.40;;;;;;6301643;28;20205;-82
2022/01/15 02:39:09;;;;;;;26.00;9.93;;;4.50;64.60;;;;;;6301655;28;20034;-82
2022/01/15 02:42:10;;;;;;;25.42;10.82;;;4.50;64.70;;;;;;6317589;28;20024;-83
2022/01/15 02:45:19;;;;;;;18.27;8.88;;;4.50;64.80;;;;;;6296957;28;20127;-82
2022/01/15 02:48:22;;;;;;;23.48;10.05;;;4.50;64.80;;;;;;6298518;28;20046;-81
2022/01/15 02:51:25;;;;;;;27.38;10.32;;;4.40;64.90;;;;;;6295603;28;20490;-81
2022/01/15 02:54:27;;;;;;;19.77;8.93;;;4.40;65.00;;;;;;6299612;28;20035;-81
2022/01/15 02:57:28;;;;;;;38.22;10.35;;;4.40;65.10;;;;;;6297513;28;20516;-82
2022/01/15 03:00:29;;;;;;;19.73;9.30;;;4.40;65.20;;;;;;6282125;28;20016;-82
2022/01/15 03:03:33;;;;;;;24.52;10.45;;;4.40;65.10;;;;;;6287453;28;20321;-82
2022/01/15 03:06:34;;;;;;;22.75;10.98;;;4.40;65.20;;;;;;6325632;28;20020;-82
2022/01/15 03:09:35;;;;;;;21.55;9.80;;;4.30;65.10;;;;;;6329197;28;20044;-84
2022/01/15 03:12:36;;;;;;;20.08;10.20;;;4.30;65.10;;;;;;6323120;28;20082;-82
2022/01/15 03:15:39;;;;;;;16.95;9.05;;;4.30;65.20;;;;;;6302017;28;20025;-82
2022/01/15 03:18:40;;;;;;;19.85;8.40;;;4.30;65.30;;;;;;6303473;28;20059;-83
2022/01/15 03:21:41;;;;;;;23.63;8.60;;;4.30;65.40;;;;;;6301130;28;20028;-82
2022/01/15 03:24:42;;;;;;;32.50;11.70;;;4.30;65.30;;;;;;6281833;28;20031;-82
2022/01/15 03:27:44;;;;;;;18.80;8.82;;;4.30;65.30;;;;;;6300005;28;20028;-82
2022/01/15 03:30:45;;;;;;;17.42;9.60;;;4.30;65.40;;;;;;6320548;28;20111;-82
2022/01/15 03:33:46;;;;;;;24.23;10.20;;;4.20;65.50;;;;;;6299257;28;20032;-82
2022/01/15 03:36:47;;;;;;;22.67;10.93;;;4.20;65.60;;;;;;6303614;28;20646;-83
2022/01/15 03:39:49;;;;;;;23.80;10.50;;;4.20;65.70;;;;;;6317325;28;20322;-82
2022/01/15 03:42:51;;;;;;;25.40;9.60;;;4.20;65.70;;;;;;6315267;28;20036;-82
2022/01/15 03:45:52;;;;;;;24.98;11.35;;;4.20;65.70;;;;;;6304471;28;20043;-83
2022/01/15 03:48:53;;;;;;;32.85;11.73;;;4.20;65.70;;;;;;6328425;28;20039;-82
2022/01/15 03:51:54;;;;;;;19.50;9.32;;;4.30;65.70;;;;;;6316339;28;20028;-82
2022/01/15 03:54:56;;;;;;;33.65;10.63;;;4.30;65.70;;;;;;6305339;28;20103;-82
2022/01/15 03:57:59;;;;;;;20.48;9.00;;;4.30;65.70;;;;;;6321167;28;20046;-82
2022/01/15 04:01:01;;;;;;;20.70;7.85;;;4.30;65.60;;;;;;6308982;28;20405;-83
2022/01/15 04:04:02;;;;;;;32.78;11.10;;;4.30;65.60;;;;;;6320781;28;20507;-83
2022/01/15 04:07:04;;;;;;;21.90;9.55;;;4.30;65.50;;;;;;6288209;28;20047;-83
2022/01/15 04:10:07;;;;;;;20.80;9.45;;;4.30;65.60;;;;;;6325523;28;20032;-82
2022/01/15 04:13:08;;;;;;;15.60;8.55;;;4.30;65.60;;;;;;6285768;28;20046;-82
2022/01/15 04:16:09;;;;;;;20.08;10.30;;;4.30;65.50;;;;;;6321860;28;20085;-82
2022/01/15 04:19:10;;;;;;;23.30;10.38;;;4.30;65.50;;;;;;6302282;28;20055;-82
2022/01/15 04:22:11;;;;;;;24.42;9.80;;;4.30;65.50;;;;;;6316611;28;20063;-82
2022/01/15 04:25:13;;;;;;;24.00;10.32;;;4.30;65.60;;;;;;6302381;28;20624;-82
2022/01/15 04:28:15;;;;;;;28.33;9.48;;;4.20;65.60;;;;;;6284674;28;20039;-82
2022/01/15 04:31:17;;;;;;;17.15;9.02;;;4.20;65.50;;;;;;6300692;28;20505;-83
2022/01/15 04:34:22;;;;;;;25.80;9.77;;;4.20;65.70;;;;;;6290586;28;20141;-82
2022/01/15 04:37:24;;;;;;;24.17;8.20;;;4.20;65.70;;;;;;6315128;28;20540;-83
2022/01/15 04:40:26;;;;;;;18.48;8.00;;;4.10;65.70;;;;;;6318243;28;20036;-83
2022/01/15 04:43:27;;;;;;;17.70;8.85;;;4.10;65.90;;;;;;6299622;28;22333;-83
2022/01/15 04:46:28;;;;;;;20.88;9.27;;;4.10;65.90;;;;;;6298229;28;20487;-83
2022/01/15 04:49:31;;;;;;;21.88;9.68;;;4.00;65.70;;;;;;6301274;28;20034;-83
2022/01/15 04:52:34;;;;;;;32.65;8.57;;;4.10;65.80;;;;;;6285518;28;20027;-82
2022/01/15 04:55:36;;;;;;;18.98;8.73;;;4.10;65.80;;;;;;6300474;28;20059;-83
2022/01/15 04:58:37;;;;;;;22.98;8.43;;;4.00;65.90;;;;;;6282447;28;20028;-84
2022/01/15 05:01:38;;;;;;;33.03;10.32;;;4.00;65.90;;;;;;6317324;28;20031;-83
2022/01/15 05:04:41;;;;;;;26.55;10.57;;;4.00;66.10;;;;;;6318433;28;20120;-81
2022/01/15 05:07:43;;;;;;;21.55;8.05;;;3.90;66.00;;;;;;6300510;28;20111;-82
2022/01/15 05:10:47;;;;;;;22.02;9.80;;;3.90;66.10;;;;;;6282589;28;20108;-82
2022/01/15 05:13:49;;;;;;;25.48;9.23;;;3.90;66.20;;;;;;6299401;28;20024;-83
2022/01/15 05:16:51;;;;;;;20.77;9.10;;;3.80;66.30;;;;;;6299275;28;20097;-83
2022/01/15 05:19:52;;;;;;;22.27;8.95;;;3.80;66.40;;;;;;6302824;28;20124;-82
2022/01/15 05:22:53;;;;;;;16.73;7.43;;;3.70;66.50;;;;;;6297590;28;20052;-82
2022/01/15 05:25:56;;;;;;;23.35;9.23;;;3.70;66.60;;;;;;6318065;28;20118;-82
2022/01/15 05:28:58;;;;;;;22.20;9.23;;;3.70;66.80;;;;;;6314911;28;20127;-82
2022/01/15 05:31:58;;;;;;;24.42;10.45;;;3.70;67.00;;;;;;6296395;28;20016;-82
2022/01/15 05:35:01;;;;;;;22.38;9.18;;;3.70;66.90;;;;;;6301093;28;20119;-82
2022/01/15 05:38:02;;;;;;;23.27;9.13;;;3.70;67.00;;;;;;6273608;28;20048;-83
2022/01/15 05:41:04;;;;;;;36.95;10.68;;;3.70;66.80;;;;;;6298072;28;20372;-83
2022/01/15 05:44:05;;;;;;;16.67;7.85;;;3.70;66.70;;;;;;6298230;28;20038;-82
2022/01/15 05:47:08;;;;;;;30.67;10.18;;;3.70;66.80;;;;;;6298725;28;20433;-82
2022/01/15 05:50:10;;;;;;;23.98;9.32;;;3.70;66.80;;;;;;6300973;28;20108;-83
2022/01/15 05:53:11;;;;;;;26.77;10.02;;;3.70;66.80;;;;;;6293430;28;20028;-83
2022/01/15 05:56:12;;;;;;;38.80;9.55;;;3.60;66.90;;;;;;6305605;28;20024;-85
2022/01/15 05:59:14;;;;;;;24.52;9.10;;;3.60;67.00;;;;;;6303517;28;20087;-83
2022/01/15 06:02:15;;;;;;;18.92;9.13;;;3.60;67.10;;;;;;6299150;28;20030;-83
2022/01/15 06:05:16;;;;;;;17.33;8.90;;;3.60;67.20;;;;;;6284325;28;20055;-83
2022/01/15 06:08:17;;;;;;;22.77;8.50;;;3.60;67.30;;;;;;6300494;28;20027;-84
2022/01/15 06:11:18;;;;;;;17.17;7.85;;;3.70;67.30;;;;;;6318646;28;20448;-81
2022/01/15 06:14:19;;;;;;;16.52;8.57;;;3.70;67.30;;;;;;6319763;28;20020;-81
2022/01/15 06:17:21;;;;;;;25.83;8.10;;;3.70;67.30;;;;;;6297546;28;20616;-83
2022/01/15 06:20:22;;;;;;;17.15;8.25;;;3.70;67.30;;;;;;6303471;28;20063;-83
2022/01/15 06:23:23;;;;;;;20.92;9.82;;;3.70;67.20;;;;;;6301273;28;20112;-84
2022/01/15 06:26:24;;;;;;;17.17;9.02;;;3.70;67.10;;;;;;6290861;28;20048;-84
2022/01/15 06:29:25;;;;;;;18.35;7.47;;;3.70;67.10;;;;;;6340422;28;20034;-84
2022/01/15 06:32:28;;;;;;;21.38;8.75;;;3.70;67.10;;;;;;6329722;28;20081;-82
2022/01/15 06:35:29;;;;;;;23.35;9.30;;;3.70;67.00;;;;;;6341211;28;20084;-83
2022/01/15 06:38:30;;;;;;;19.60;8.55;;;3.70;66.90;;;;;;6319612;28;20026;-83
2022/01/15 06:41:32;;;;;;;27.95;8.60;;;3.70;67.00;;;;;;6313839;28;20093;-83
2022/01/15 06:44:33;;;;;;;21.23;9.40;;;3.60;67.00;;;;;;6292920;28;20446;-82
2022/01/15 06:47:34;;;;;;;23.33;8.73;;;3.60;67.10;;;;;;6311180;28;20032;-84
2022/01/15 06:50:37;;;;;;;28.60;9.52;;;3.60;67.10;;;;;;6295342;28;20020;-82
2022/01/15 06:53:38;;;;;;;26.17;8.98;;;3.60;67.00;;;;;;6300759;28;20044;-82
2022/01/15 06:56:39;;;;;;;29.40;8.13;;;3.50;67.00;;;;;;6300365;28;20678;-84
2022/01/15 06:59:44;;;;;;;10.77;6.47;;;3.50;67.10;;;;;;6319312;28;20089;-83
2022/01/15 07:02:45;;;;;;;23.60;9.38;;;3.40;67.20;;;;;;6282252;28;20031;-84
2022/01/15 07:05:46;;;;;;;18.23;7.97;;;3.40;67.30;;;;;;6312274;28;20111;-84
2022/01/15 07:08:47;;;;;;;18.55;8.90;;;3.40;67.30;;;;;;6299236;28;20074;-83
2022/01/15 07:11:49;;;;;;;19.48;7.70;;;3.40;67.30;;;;;;6283054;28;20020;-82
2022/01/15 07:14:53;;;;;;;18.98;7.75;;;3.40;67.20;;;;;;6283028;28;20024;-84
2022/01/15 07:17:54;;;;;;;19.92;7.55;;;3.40;67.30;;;;;;6297663;28;20503;-82
2022/01/15 07:20:55;;;;;;;22.52;9.50;;;3.30;67.30;;;;;;6298390;28;20077;-83
2022/01/15 07:23:57;;;;;;;17.98;8.15;;;2.80;67.00;;;;;;6312879;28;20156;-84
2022/01/15 07:26:58;;;;;;;14.07;7.43;;;3.30;67.50;;;;;;6310180;28;20067;-83
2022/01/15 07:30:01;;;;;;;27.10;11.55;;;3.30;67.50;;;;;;6309412;28;20032;-83
2022/01/15 07:33:02;;;;;;;23.67;8.60;;;3.30;68.30;;;;;;6306999;28;20028;-83
2022/01/15 07:36:04;;;;;;;16.38;8.07;;;3.40;67.50;;;;;;6291819;28;20028;-84
2022/01/15 07:39:07;;;;;;;19.38;9.85;;;3.40;67.40;;;;;;6311398;28;20032;-80
2022/01/15 07:42:10;;;;;;;21.27;8.95;;;3.40;67.30;;;;;;6293668;28;20500;-80
2022/01/15 07:45:14;;;;;;;21.90;9.60;;;3.40;67.40;;;;;;6312790;28;20028;-80
2022/01/15 07:48:16;;;;;;;16.98;8.10;;;3.40;67.30;;;;;;6305504;28;20352;-81
2022/01/15 07:51:17;;;;;;;22.23;9.45;;;3.50;67.40;;;;;;6283564;28;20024;-84
2022/01/15 07:54:19;;;;;;;24.95;9.27;;;3.50;67.20;;;;;;6298891;28;20020;-82
2022/01/15 07:57:21;;;;;;;21.30;8.65;;;3.50;67.10;;;;;;6302959;28;20035;-82
2022/01/15 08:00:22;;;;;;;19.80;9.27;;;3.50;67.10;;;;;;6303672;28;20686;-81
2022/01/15 08:03:24;;;;;;;30.20;10.05;;;3.50;67.10;;;;;;6301875;28;20028;-82
2022/01/15 08:06:26;;;;;;;19.92;8.88;;;3.30;67.00;;;;;;6319166;28;20464;-82
2022/01/15 08:09:27;;;;;;;21.25;10.02;;;3.50;67.20;;;;;;6286936;28;20032;-82
2022/01/15 08:12:29;;;;;;;19.23;9.05;;;3.40;67.00;;;;;;6305869;28;20032;-83
2022/01/15 08:15:31;;;;;;;15.18;7.82;;;3.40;67.00;;;;;;6316691;28;20028;-80
2022/01/15 08:18:33;;;;;;;22.40;9.07;;;3.50;67.20;;;;;;6318506;28;20032;-81
2022/01/15 08:21:34;;;;;;;21.92;9.55;;;3.50;67.30;;;;;;6286066;28;20081;-81
2022/01/15 08:24:35;;;;;;;26.80;10.35;;;3.50;67.30;;;;;;6304706;28;20028;-80
2022/01/15 08:27:36;;;;;;;21.83;9.88;;;3.60;67.30;;;;;;6299428;28;20123;-80
2022/01/15 08:30:37;;;;;;;25.38;11.10;;;3.60;67.30;;;;;;6283163;28;20082;-80
2022/01/15 08:33:39;;;;;;;24.33;10.75;;;3.60;67.10;;;;;;6301341;28;20060;-81
2022/01/15 08:36:40;;;;;;;23.33;9.98;;;3.70;67.10;;;;;;6281019;28;20048;-80
2022/01/15 08:39:41;;;;;;;20.40;8.40;;;3.70;67.10;;;;;;6299643;28;20099;-82
2022/01/15 08:42:42;;;;;;;24.88;10.90;;;3.80;67.20;;;;;;6288516;28;20100;-82
2022/01/15 08:45:46;;;;;;;17.15;8.98;;;3.90;67.10;;;;;;6282482;28;20127;-81
2022/01/15 08:48:48;;;;;;;21.27;9.02;;;4.00;67.00;;;;;;6314352;28;20025;-80
2022/01/15 08:51:49;;;;;;;26.33;12.70;;;4.10;66.80;;;;;;6300807;28;20024;-81
2022/01/15 08:54:50;;;;;;;23.65;9.63;;;4.20;66.50;;;;;;6312612;28;20107;-81
2022/01/15 08:57:51;;;;;;;27.73;12.30;;;4.30;66.40;;;;;;6294328;28;20060;-79
2022/01/15 09:00:54;;;;;;;26.55;11.07;;;4.40;66.20;;;;;;6282135;28;20019;-80
2022/01/15 09:03:57;;;;;;;20.42;9.93;;;4.50;66.10;;;;;;6307272;28;20103;-81
2022/01/15 09:06:58;;;;;;;21.85;9.95;;;4.60;65.80;;;;;;6306450;28;20039;-82
2022/01/15 09:09:59;;;;;;;24.63;11.77;;;4.70;65.40;;;;;;6298725;28;20150;-81
2022/01/15 09:13:00;;;;;;;28.65;11.35;;;4.80;65.40;;;;;;6303643;28;20031;-80
2022/01/15 09:16:02;;;;;;;25.35;11.15;;;4.90;65.10;;;;;;6302987;28;20032;-84
2022/01/15 09:19:03;;;;;;;25.90;12.25;;;5.00;64.90;;;;;;6299673;28;20589;-82
2022/01/15 09:22:08;;;;;;;28.25;11.45;;;5.10;64.70;;;;;;6296582;28;20078;-81
2022/01/15 09:25:10;;;;;;;28.90;13.30;;;5.20;64.40;;;;;;6295422;28;20028;-82
2022/01/15 09:31:31;;;;;;;26.20;12.05;;;5.30;63.80;;;;;;6293238;28;20028;-78
2022/01/15 09:34:34;;;;;;;30.65;13.35;;;5.40;63.60;;;;;;6309947;28;20025;-78
2022/01/15 09:37:35;;;;;;;32.63;13.13;;;5.40;63.60;;;;;;6293413;28;20031;-81
2022/01/15 09:40:40;;;;;;;30.95;13.40;;;5.50;63.50;;;;;;6301976;28;20150;-79
2022/01/15 09:43:42;;;;;;;31.13;13.73;;;5.60;63.50;;;;;;6308777;28;20047;-79
2022/01/15 09:46:46;;;;;;;36.10;14.73;;;5.70;63.30;;;;;;6313442;28;20043;-82
2022/01/15 09:49:48;;;;;;;40.33;16.77;;;5.70;63.00;;;;;;6293538;28;20029;-80
2022/01/15 09:52:50;;;;;;;35.13;14.57;;;5.80;63.00;;;;;;6261941;28;20055;-81
2022/01/15 09:55:52;;;;;;;28.13;12.02;;;5.80;62.70;;;;;;6300698;28;20028;-82
2022/01/15 09:58:54;;;;;;;31.83;13.32;;;5.80;62.70;;;;;;6310734;28;20034;-79
2022/01/15 10:01:57;;;;;;;49.55;19.77;;;5.90;62.90;;;;;;6282395;28;20047;-80
2022/01/15 10:04:59;;;;;;;37.83;15.13;;;5.90;62.80;;;;;;6304694;28;20095;-80
2022/01/15 10:08:04;;;;;;;29.15;12.38;;;6.00;62.80;;;;;;6295686;28;20038;-77
2022/01/15 10:11:11;;;;;;;36.17;15.45;;;6.10;62.70;;;;;;6293829;28;20021;-78
2022/01/15 10:14:33;;;;;;;47.22;18.20;;;6.20;62.60;;;;;;6315905;28;20057;-79
2022/01/15 10:17:36;;;;;;;40.67;17.10;;;6.50;62.30;;;;;;6282752;28;20449;-79
2022/01/15 10:20:38;;;;;;;28.60;13.90;;;6.70;62.10;;;;;;6298433;28;20437;-79
2022/01/15 10:23:52;;;;;;;30.60;13.48;;;7.00;61.70;;;;;;6304280;28;20044;-79
2022/01/15 10:26:53;;;;;;;32.72;13.05;;;7.30;60.80;;;;;;6287724;28;20039;-80
2022/01/15 10:30:00;;;;;;;32.65;12.98;;;7.40;60.00;;;;;;6298644;28;20508;-80
2022/01/15 10:33:07;;;;;;;34.53;14.77;;;7.60;59.60;;;;;;6311012;28;20024;-80
2022/01/15 10:36:35;;;;;;;30.50;13.07;;;7.80;59.30;;;;;;6315607;28;20031;-80
2022/01/15 10:39:36;;;;;;;41.57;16.90;;;7.90;58.90;;;;;;6291028;28;20024;-81
2022/01/15 10:42:38;;;;;;;38.95;16.30;;;8.10;58.60;;;;;;6299631;28;20339;-81
2022/01/15 10:46:01;;;;;;;30.67;13.70;;;8.30;58.10;;;;;;6299017;28;20397;-79
2022/01/15 10:49:22;;;;;;;41.05;14.52;;;8.50;57.60;;;;;;6313015;28;20078;-79
2022/01/15 10:52:25;;;;;;;45.13;18.70;;;8.80;57.30;;;;;;6303563;28;20504;-80
2022/01/15 10:55:31;;;;;;;64.30;20.25;;;9.10;57.40;;;;;;6296638;28;20032;-79
2022/01/15 10:58:32;;;;;;;52.47;20.38;;;9.40;56.40;;;;;;6297617;28;20119;-78
2022/01/15 11:01:35;;;;;;;52.95;22.13;;;9.60;55.70;;;;;;6277997;28;20029;-78
2022/01/15 11:04:36;;;;;;;59.65;22.00;;;9.90;55.20;;;;;;6281479;28;20219;-78
2022/01/15 11:07:37;;;;;;;52.47;20.25;;;10.30;54.80;;;;;;6294429;28;20103;-78
2022/01/15 11:10:43;;;;;;;49.78;19.52;;;10.70;53.90;;;;;;6292521;28;20059;-78
2022/01/15 11:13:47;;;;;;;50.72;20.10;;;11.10;53.20;;;;;;6296462;28;20402;-78
2022/01/15 11:16:50;;;;;;;34.78;15.68;;;11.60;52.50;;;;;;6296199;28;20399;-78
2022/01/15 11:19:53;;;;;;;43.53;16.42;;;12.10;51.40;;;;;;6314033;28;20031;-79
2022/01/15 11:22:54;;;;;;;31.38;15.10;;;12.60;50.30;;;;;;6297372;28;20048;-79
2022/01/15 11:25:58;;;;;;;37.25;15.38;;;13.10;48.70;;;;;;6317203;28;20525;-79
2022/01/15 11:28:59;;;;;;;40.33;18.08;;;13.40;47.40;;;;;;6298606;28;20032;-79
2022/01/15 11:32:01;;;;;;;41.53;18.00;;;13.70;46.60;;;;;;6313116;28;20036;-77
2022/01/15 11:35:09;;;;;;;34.35;16.98;;;14.00;46.20;;;;;;6315888;28;20017;-79
2022/01/15 11:38:10;;;;;;;46.63;18.63;;;14.40;45.30;;;;;;6299561;28;20364;-79
2022/01/15 11:41:28;;;;;;;48.75;20.35;;;14.80;44.40;;;;;;6316727;28;20028;-79
2022/01/15 11:44:29;;;;;;;43.97;19.42;;;15.20;43.00;;;;;;6308843;28;20448;-77
2022/01/15 11:47:30;;;;;;;48.90;21.33;;;15.50;42.40;;;;;;6320673;28;20093;-79
2022/01/15 11:50:31;;;;;;;45.33;18.85;;;15.80;42.10;;;;;;6317875;28;20024;-78
2022/01/15 11:54:00;;;;;;;53.80;21.38;;;16.20;41.00;;;;;;6316301;28;20102;-79
2022/01/15 11:57:03;;;;;;;51.25;20.67;;;16.50;39.80;;;;;;6294898;28;20593;-78
2022/01/15 12:00:21;;;;;;;42.88;18.10;;;16.70;39.00;;;;;;6319984;28;20038;-78
2022/01/15 12:03:22;;;;;;;55.63;22.00;;;16.70;38.60;;;;;;6282508;28;20051;-78
2022/01/15 12:06:23;;;;;;;54.72;22.73;;;16.20;39.40;;;;;;6314466;28;20034;-78
2022/01/15 12:09:54;;;;;;;44.75;18.33;;;15.60;40.20;;;;;;6280043;28;20047;-79
2022/01/15 12:12:56;;;;;;;47.15;17.70;;;14.80;41.30;;;;;;6216269;28;20135;-79
2022/01/15 12:16:21;;;;;;;45.05;19.27;;;14.00;42.20;;;;;;6212504;28;20053;-81
2022/01/15 12:19:36;;;;;;;48.67;19.75;;;13.30;43.60;;;;;;6221135;28;20353;-80
2022/01/15 12:22:45;;;;;;;44.85;19.85;;;12.70;44.80;;;;;;6215114;28;20046;-82
2022/01/15 12:25:49;;;;;;;38.83;16.63;;;12.20;45.40;;;;;;6193212;28;20403;-78
2022/01/15 12:28:50;;;;;;;37.47;15.38;;;11.80;46.30;;;;;;6192747;28;20608;-78
2022/01/15 12:31:51;;;;;;;44.47;15.65;;;11.50;47.10;;;;;;6193651;28;20066;-79
2022/01/15 12:34:52;;;;;;;37.80;14.27;;;11.30;47.70;;;;;;6188161;28;20026;-81
2022/01/15 12:38:11;;;;;;;26.88;11.20;;;11.10;48.20;;;;;;6192673;28;20486;-77
2022/01/15 12:41:18;;;;;;;70.18;22.77;;;11.00;48.60;;;;;;6191137;28;20034;-80
2022/01/15 12:44:19;;;;;;;31.20;13.55;;;10.90;48.80;;;;;;6173932;28;20041;-78
2022/01/15 12:47:22;;;;;;;49.92;18.50;;;10.80;49.00;;;;;;6166644;28;20077;-88
2022/01/15 12:50:24;;;;;;;63.50;21.73;;;10.80;49.20;;;;;;6247055;28;20032;-88
2022/01/15 12:53:28;;;;;;;44.17;19.42;;;10.70;49.30;;;;;;6269794;28;20284;-90
2022/01/15 12:56:37;;;;;;;39.78;15.57;;;10.60;49.60;;;;;;6252291;28;20025;-88
2022/01/15 12:59:39;;;;;;;32.42;13.63;;;10.60;50.40;;;;;;6273625;28;20405;-88
2022/01/15 13:02:40;;;;;;;41.20;15.20;;;10.50;49.90;;;;;;6245551;28;20083;-86
2022/01/15 13:05:45;;;;;;;36.60;15.85;;;10.50;50.10;;;;;;6264146;28;20064;-87
2022/01/15 13:08:46;;;;;;;31.95;12.40;;;10.50;50.30;;;;;;6251411;28;20763;-86
2022/01/15 13:11:58;;;;;;;29.15;11.65;;;10.50;50.40;;;;;;6267399;28;20031;-87
2022/01/15 13:14:59;;;;;;;30.88;11.98;;;10.40;51.10;;;;;;6269644;28;20033;-87
2022/01/15 13:18:00;;;;;;;38.95;16.80;;;10.50;50.50;;;;;;6247641;28;20642;-87
2022/01/15 13:21:07;;;;;;;40.58;14.20;;;10.50;50.50;;;;;;6275305;28;20044;-86
2022/01/15 13:24:12;;;;;;;27.85;12.40;;;10.50;50.60;;;;;;6300994;28;20083;-86
2022/01/15 13:27:20;;;;;;;35.10;12.70;;;10.50;50.60;;;;;;6286358;28;20360;-87
2022/01/15 13:30:24;;;;;;;34.27;14.40;;;10.50;50.70;;;;;;6293279;28;20036;-86
2022/01/15 13:33:43;;;;;;;27.52;13.25;;;10.60;50.80;;;;;;6288438;28;20750;-87
2022/01/15 13:36:46;;;;;;;26.02;13.00;;;10.60;50.60;;;;;;6302245;28;20036;-86
2022/01/15 13:39:49;;;;;;;29.45;12.73;;;10.60;50.70;;;;;;6294536;28;20163;-85
2022/01/15 13:42:51;;;;;;;26.83;12.25;;;10.70;50.80;;;;;;6307561;28;20127;-87
2022/01/15 13:45:52;;;;;;;41.40;16.60;;;10.70;50.80;;;;;;6292562;28;20021;-86
2022/01/15 13:49:00;;;;;;;33.63;13.38;;;10.60;50.80;;;;;;6296747;28;20120;-88
2022/01/15 13:55:29;;;;;;;31.73;13.05;;;10.70;51.00;;;;;;6284358;28;20020;-77
2022/01/15 13:58:30;;;;;;;;;;;10.60;51.00;;;;;;6288894;28;20025;-77
2022/01/15 14:01:35;;;;;;;38.10;14.68;;;10.70;51.10;;;;;;6264862;28;19924;-79
2022/01/15 14:04:39;;;;;;;33.92;14.10;;;10.70;51.10;;;;;;6282569;28;20484;-78
2022/01/15 14:07:41;;;;;;;29.88;12.57;;;10.70;51.20;;;;;;6288288;28;20028;-79
2022/01/15 14:10:43;;;;;;;31.77;13.00;;;10.70;51.20;;;;;;6284170;28;20047;-79
2022/01/15 14:13:45;;;;;;;45.30;18.08;;;10.70;51.20;;;;;;6287453;28;20353;-80
2022/01/15 14:16:55;;;;;;;29.80;13.35;;;10.80;51.20;;;;;;6285580;28;20071;-81
2022/01/15 14:23:04;;;;;;;32.67;11.63;;;10.80;50.90;;;;;;6282018;28;20057;-79
2022/01/15 14:26:17;;;;;;;51.20;17.48;;;10.80;50.90;;;;;;6287288;28;20127;-79
2022/01/15 14:29:20;;;;;;;34.67;15.50;;;10.80;50.90;;;;;;6283892;28;20029;-80
2022/01/15 14:32:23;;;;;;;36.92;14.65;;;10.90;51.00;;;;;;6275795;28;20049;-79
2022/01/15 14:35:26;;;;;;;27.75;12.07;;;10.90;51.00;;;;;;6283159;28;20016;-86
2022/01/15 14:38:29;;;;;;;38.65;15.80;;;10.90;50.90;;;;;;6278735;28;20047;-79
2022/01/15 14:41:32;;;;;;;36.65;14.73;;;10.90;50.90;;;;;;6273454;28;20047;-77
2022/01/15 14:44:33;;;;;;;38.47;14.05;;;10.90;50.90;;;;;;6270925;28;20449;-78
2022/01/15 14:47:35;;;;;;;67.78;21.35;;;10.90;50.90;;;;;;6284307;28;20480;-78
2022/01/15 14:50:36;;;;;;;98.78;27.73;;;11.20;51.00;;;;;;6265228;28;20025;-80
2022/01/15 14:53:37;;;;;;;31.15;12.00;;;11.00;50.90;;;;;;6275900;28;20056;-79
2022/01/15 14:56:39;;;;;;;40.58;13.13;;;11.00;50.80;;;;;;6282072;28;20077;-79
2022/01/15 14:59:41;;;;;;;27.77;11.02;;;11.00;50.80;;;;;;6269332;28;20487;-78
2022/01/15 15:02:43;;;;;;;32.22;12.07;;;10.90;50.70;;;;;;6274130;28;20028;-78
2022/01/15 15:05:44;;;;;;;30.25;11.77;;;10.90;50.80;;;;;;6280386;28;20033;-79
2022/01/15 15:08:45;;;;;;;25.02;10.20;;;10.90;50.90;;;;;;6282055;28;20017;-78
2022/01/15 15:11:47;;;;;;;31.25;11.98;;;10.90;50.90;;;;;;6284218;28;20032;-80
2022/01/15 15:14:49;;;;;;;25.13;11.73;;;10.90;50.90;;;;;;6275367;28;20024;-80
2022/01/15 15:17:51;;;;;;;26.05;11.57;;;10.90;51.00;;;;;;6286844;28;20029;-79
2022/01/15 15:20:53;;;;;;;22.58;10.30;;;10.90;51.00;;;;;;6291558;28;20028;-80
2022/01/15 15:23:56;;;;;;;30.00;12.23;;;10.90;51.00;;;;;;6291883;28;20048;-78
2022/01/15 15:26:57;;;;;;;30.85;11.80;;;11.00;51.00;;;;;;6293889;28;20044;-80
2022/01/15 15:29:58;;;;;;;24.90;10.80;;;11.00;50.90;;;;;;6292474;28;20028;-79
2022/01/15 15:32:59;;;;;;;26.30;9.80;;;11.00;50.70;;;;;;6294905;28;20024;-79
2022/01/15 15:36:01;;;;;;;27.38;11.10;;;10.90;50.70;;;;;;6286505;28;20060;-79
2022/01/15 15:39:04;;;;;;;24.45;11.05;;;10.90;50.70;;;;;;6294317;28;20133;-77
2022/01/15 15:42:06;;;;;;;38.40;12.73;;;11.00;50.70;;;;;;6291700;28;20025;-80
2022/01/15 15:45:08;;;;;;;36.92;14.10;;;10.90;50.70;;;;;;6283772;28;20358;-79
2022/01/15 15:48:09;;;;;;;30.48;13.52;;;10.90;50.70;;;;;;6288529;28;20021;-80
2022/01/15 15:51:10;;;;;;;26.52;11.05;;;10.90;50.70;;;;;;6263520;28;20037;-79
2022/01/15 15:54:12;;;;;;;25.02;10.60;;;10.90;50.70;;;;;;6276454;28;20021;-78
2022/01/15 15:57:15;;;;;;;26.30;10.52;;;10.90;51.30;;;;;;6263230;28;20032;-80
2022/01/15 16:00:19;;;;;;;24.77;10.07;;;10.90;50.80;;;;;;6281540;28;20055;-79
2022/01/15 16:03:23;;;;;;;35.92;12.48;;;10.90;50.80;;;;;;6288670;28;20058;-79